sensor_id;sensor_type;location;lat;lon;timestamp;temperature;humidity
60701;DHT22;46541;49.894;10.886;2023-01-23T00:02:07;2.70;99.90
60701;DHT22;46541;49.894;10.886;2023-01-23T00:04:35;2.70;99.90
60701;DHT22;46541;49.894;10.886;2023-01-23T00:07:01;2.70;99.90
60701;DHT22;46541;49.894;10.886;2023-01-23T00:09:29;2.60;99.90
60701;DHT22;46541;49.894;10.886;2023-01-23T00:11:56;2.60;99.90
60701;DHT22;46541;49.894;10.886;2023-01-23T00:14:23;2.60;99.90
60701;DHT22;46541;49.894;10.886;2023-01-23T00:16:49;2.60;99.90
60701;DHT22;46541;49.894;10.886;2023-01-23T00:19:16;2.70;99.90
60701;DHT22;46541;49.894;10.886;2023-01-23T00:21:43;2.70;99.90
60701;DHT22;46541;49.894;10.886;2023-01-23T00:24:10;2.60;99.90
60701;DHT22;46541;49.894;10.886;2023-01-23T00:26:37;2.60;99.90
60701;DHT22;46541;49.894;10.886;2023-01-23T00:29:04;2.60;99.90
60701;DHT22;46541;49.894;10.886;2023-01-23T00:31:36;2.60;99.90
60701;DHT22;46541;49.894;10.886;2023-01-23T00:34:06;2.70;99.90
60701;DHT22;46541;49.894;10.886;2023-01-23T00:36:36;2.70;99.90
60701;DHT22;46541;49.894;10.886;2023-01-23T00:39:06;2.80;99.90
60701;DHT22;46541;49.894;10.886;2023-01-23T00:41:33;2.80;99.90
60701;DHT22;46541;49.894;10.886;2023-01-23T00:44:00;2.80;99.90
60701;DHT22;46541;49.894;10.886;2023-01-23T00:46:27;2.70;99.90
60701;DHT22;46541;49.894;10.886;2023-01-23T00:48:53;2.70;99.90
60701;DHT22;46541;49.894;10.886;2023-01-23T00:51:20;2.70;99.90
60701;DHT22;46541;49.894;10.886;2023-01-23T00:53:47;2.70;99.90
60701;DHT22;46541;49.894;10.886;2023-01-23T00:56:14;2.70;99.90
60701;DHT22;46541;49.894;10.886;2023-01-23T00:58:41;2.70;99.90
60701;DHT22;46541;49.894;10.886;2023-01-23T01:01:11;2.70;99.90
60701;DHT22;46541;49.894;10.886;2023-01-23T01:03:38;2.80;99.90
60701;DHT22;46541;49.894;10.886;2023-01-23T01:06:05;2.70;99.90
60701;DHT22;46541;49.894;10.886;2023-01-23T01:08:32;2.70;99.90
60701;DHT22;46541;49.894;10.886;2023-01-23T01:10:59;2.70;99.90
60701;DHT22;46541;49.894;10.886;2023-01-23T01:13:26;2.70;99.90
60701;DHT22;46541;49.894;10.886;2023-01-23T01:15:53;2.80;99.90
60701;DHT22;46541;49.894;10.886;2023-01-23T01:18:21;2.80;99.90
60701;DHT22;46541;49.894;10.886;2023-01-23T01:20:48;2.80;99.90
60701;DHT22;46541;49.894;10.886;2023-01-23T01:23:16;2.80;99.90
60701;DHT22;46541;49.894;10.886;2023-01-23T01:25:43;2.80;99.90
60701;DHT22;46541;49.894;10.886;2023-01-23T01:28:10;2.90;99.90
60701;DHT22;46541;49.894;10.886;2023-01-23T01:30:38;2.90;99.90
60701;DHT22;46541;49.894;10.886;2023-01-23T01:33:06;2.90;99.90
60701;DHT22;46541;49.894;10.886;2023-01-23T01:35:33;2.90;99.90
60701;DHT22;46541;49.894;10.886;2023-01-23T01:37:59;2.90;99.90
60701;DHT22;46541;49.894;10.886;2023-01-23T01:40:31;2.90;99.90
60701;DHT22;46541;49.894;10.886;2023-01-23T01:43:01;2.90;99.90
60701;DHT22;46541;49.894;10.886;2023-01-23T01:48:31;2.80;99.90
60701;DHT22;46541;49.894;10.886;2023-01-23T01:50:59;2.80;99.90
60701;DHT22;46541;49.894;10.886;2023-01-23T01:53:28;2.80;99.90
60701;DHT22;46541;49.894;10.886;2023-01-23T01:55:56;2.80;99.90
60701;DHT22;46541;49.894;10.886;2023-01-23T01:58:23;2.80;99.90
60701;DHT22;46541;49.894;10.886;2023-01-23T02:00:50;2.80;99.90
60701;DHT22;46541;49.894;10.886;2023-01-23T02:03:17;2.80;99.90
60701;DHT22;46541;49.894;10.886;2023-01-23T02:05:47;2.70;99.90
60701;DHT22;46541;49.894;10.886;2023-01-23T02:10:51;2.70;99.90
60701;DHT22;46541;49.894;10.886;2023-01-23T02:13:28;2.70;99.90
60701;DHT22;46541;49.894;10.886;2023-01-23T02:16:13;2.80;99.90
60701;DHT22;46541;49.894;10.886;2023-01-23T02:18:43;2.80;99.90
60701;DHT22;46541;49.894;10.886;2023-01-23T02:21:15;2.80;99.90
60701;DHT22;46541;49.894;10.886;2023-01-23T02:23:52;2.80;99.90
60701;DHT22;46541;49.894;10.886;2023-01-23T02:26:29;2.80;99.90
60701;DHT22;46541;49.894;10.886;2023-01-23T02:28:58;2.80;99.90
60701;DHT22;46541;49.894;10.886;2023-01-23T02:31:25;2.80;99.90
60701;DHT22;46541;49.894;10.886;2023-01-23T02:33:54;2.90;99.90
60701;DHT22;46541;49.894;10.886;2023-01-23T02:36:24;2.80;99.90
60701;DHT22;46541;49.894;10.886;2023-01-23T02:41:38;2.80;99.90
60701;DHT22;46541;49.894;10.886;2023-01-23T02:44:25;2.90;99.90
60701;DHT22;46541;49.894;10.886;2023-01-23T02:46:53;2.90;99.90
60701;DHT22;46541;49.894;10.886;2023-01-23T02:49:20;2.90;99.90
60701;DHT22;46541;49.894;10.886;2023-01-23T02:51:50;2.90;99.90
60701;DHT22;46541;49.894;10.886;2023-01-23T02:54:17;2.90;99.90
60701;DHT22;46541;49.894;10.886;2023-01-23T02:56:44;2.90;99.90
60701;DHT22;46541;49.894;10.886;2023-01-23T02:59:11;2.90;99.90
60701;DHT22;46541;49.894;10.886;2023-01-23T03:01:56;2.90;99.90
60701;DHT22;46541;49.894;10.886;2023-01-23T03:04:23;2.90;99.90
60701;DHT22;46541;49.894;10.886;2023-01-23T03:06:50;2.80;99.90
60701;DHT22;46541;49.894;10.886;2023-01-23T03:09:18;2.80;99.90
60701;DHT22;46541;49.894;10.886;2023-01-23T03:11:45;2.80;99.90
60701;DHT22;46541;49.894;10.886;2023-01-23T03:14:17;2.80;99.90
60701;DHT22;46541;49.894;10.886;2023-01-23T03:16:44;2.80;99.90
60701;DHT22;46541;49.894;10.886;2023-01-23T03:19:18;2.80;99.90
60701;DHT22;46541;49.894;10.886;2023-01-23T03:21:45;2.90;99.90
60701;DHT22;46541;49.894;10.886;2023-01-23T03:24:13;2.80;99.90
60701;DHT22;46541;49.894;10.886;2023-01-23T03:26:42;2.80;99.90
60701;DHT22;46541;49.894;10.886;2023-01-23T03:29:17;2.80;99.90
60701;DHT22;46541;49.894;10.886;2023-01-23T03:32:03;2.90;99.90
60701;DHT22;46541;49.894;10.886;2023-01-23T03:34:31;2.90;99.90
60701;DHT22;46541;49.894;10.886;2023-01-23T03:36:58;2.90;99.90
60701;DHT22;46541;49.894;10.886;2023-01-23T03:39:26;2.90;99.90
60701;DHT22;46541;49.894;10.886;2023-01-23T03:42:12;2.90;99.90
60701;DHT22;46541;49.894;10.886;2023-01-23T03:44:38;2.90;99.90
60701;DHT22;46541;49.894;10.886;2023-01-23T03:47:06;2.90;99.90
60701;DHT22;46541;49.894;10.886;2023-01-23T03:49:33;2.90;99.90
60701;DHT22;46541;49.894;10.886;2023-01-23T03:51:59;2.80;99.90
60701;DHT22;46541;49.894;10.886;2023-01-23T03:54:26;2.80;99.90
60701;DHT22;46541;49.894;10.886;2023-01-23T03:56:53;2.80;99.90
60701;DHT22;46541;49.894;10.886;2023-01-23T03:59:20;2.90;99.90
60701;DHT22;46541;49.894;10.886;2023-01-23T04:01:46;3.00;99.90
60701;DHT22;46541;49.894;10.886;2023-01-23T04:04:13;3.00;99.90
60701;DHT22;46541;49.894;10.886;2023-01-23T04:06:40;3.00;99.90
60701;DHT22;46541;49.894;10.886;2023-01-23T04:09:07;3.00;99.90
60701;DHT22;46541;49.894;10.886;2023-01-23T04:11:34;3.00;99.90
60701;DHT22;46541;49.894;10.886;2023-01-23T04:14:01;3.00;99.90
60701;DHT22;46541;49.894;10.886;2023-01-23T04:16:27;2.90;99.90
60701;DHT22;46541;49.894;10.886;2023-01-23T04:18:54;2.90;99.90
60701;DHT22;46541;49.894;10.886;2023-01-23T04:21:21;2.90;99.90
60701;DHT22;46541;49.894;10.886;2023-01-23T04:23:48;2.80;99.90
60701;DHT22;46541;49.894;10.886;2023-01-23T04:26:15;2.90;99.90
60701;DHT22;46541;49.894;10.886;2023-01-23T04:28:41;2.90;99.90
60701;DHT22;46541;49.894;10.886;2023-01-23T04:31:08;2.80;99.90
60701;DHT22;46541;49.894;10.886;2023-01-23T04:33:35;2.80;99.90
60701;DHT22;46541;49.894;10.886;2023-01-23T04:36:04;2.80;99.90
60701;DHT22;46541;49.894;10.886;2023-01-23T04:38:32;2.70;99.90
60701;DHT22;46541;49.894;10.886;2023-01-23T04:40:59;2.70;99.90
60701;DHT22;46541;49.894;10.886;2023-01-23T04:43:26;2.70;99.90
60701;DHT22;46541;49.894;10.886;2023-01-23T04:45:53;2.70;99.90
60701;DHT22;46541;49.894;10.886;2023-01-23T04:48:21;2.70;99.90
60701;DHT22;46541;49.894;10.886;2023-01-23T04:50:49;2.70;99.90
60701;DHT22;46541;49.894;10.886;2023-01-23T04:53:16;2.70;99.90
60701;DHT22;46541;49.894;10.886;2023-01-23T04:55:46;2.80;99.90
60701;DHT22;46541;49.894;10.886;2023-01-23T04:58:14;2.80;99.90
60701;DHT22;46541;49.894;10.886;2023-01-23T05:00:41;2.80;99.90
60701;DHT22;46541;49.894;10.886;2023-01-23T05:03:08;2.80;99.90
60701;DHT22;46541;49.894;10.886;2023-01-23T05:05:35;2.80;99.90
60701;DHT22;46541;49.894;10.886;2023-01-23T05:08:02;2.80;99.90
60701;DHT22;46541;49.894;10.886;2023-01-23T05:10:28;2.80;99.90
60701;DHT22;46541;49.894;10.886;2023-01-23T05:12:55;2.80;99.90
60701;DHT22;46541;49.894;10.886;2023-01-23T05:15:22;2.80;99.90
60701;DHT22;46541;49.894;10.886;2023-01-23T05:17:49;2.80;99.90
60701;DHT22;46541;49.894;10.886;2023-01-23T05:20:16;2.80;99.90
60701;DHT22;46541;49.894;10.886;2023-01-23T05:22:43;2.80;99.90
60701;DHT22;46541;49.894;10.886;2023-01-23T05:25:21;2.70;99.90
60701;DHT22;46541;49.894;10.886;2023-01-23T05:27:49;2.80;99.90
60701;DHT22;46541;49.894;10.886;2023-01-23T05:30:16;2.80;99.90
60701;DHT22;46541;49.894;10.886;2023-01-23T05:32:43;2.80;99.90
60701;DHT22;46541;49.894;10.886;2023-01-23T05:35:10;2.80;99.90
60701;DHT22;46541;49.894;10.886;2023-01-23T05:37:37;2.80;99.90
60701;DHT22;46541;49.894;10.886;2023-01-23T05:40:05;2.80;99.90
60701;DHT22;46541;49.894;10.886;2023-01-23T05:42:34;2.80;99.90
60701;DHT22;46541;49.894;10.886;2023-01-23T05:45:01;2.80;99.90
60701;DHT22;46541;49.894;10.886;2023-01-23T05:47:28;2.80;99.90
60701;DHT22;46541;49.894;10.886;2023-01-23T05:49:55;2.80;99.90
60701;DHT22;46541;49.894;10.886;2023-01-23T05:52:22;2.80;99.90
60701;DHT22;46541;49.894;10.886;2023-01-23T05:54:49;2.80;99.90
60701;DHT22;46541;49.894;10.886;2023-01-23T05:57:16;2.80;99.90
60701;DHT22;46541;49.894;10.886;2023-01-23T05:59:43;2.80;99.90
60701;DHT22;46541;49.894;10.886;2023-01-23T06:02:10;2.80;99.90
60701;DHT22;46541;49.894;10.886;2023-01-23T06:04:37;2.80;99.90
60701;DHT22;46541;49.894;10.886;2023-01-23T06:07:04;2.80;99.90
60701;DHT22;46541;49.894;10.886;2023-01-23T06:09:31;2.80;99.90
60701;DHT22;46541;49.894;10.886;2023-01-23T06:11:57;2.80;99.90
60701;DHT22;46541;49.894;10.886;2023-01-23T06:14:24;2.70;99.90
60701;DHT22;46541;49.894;10.886;2023-01-23T06:16:51;2.80;99.90
60701;DHT22;46541;49.894;10.886;2023-01-23T06:19:20;2.80;99.90
60701;DHT22;46541;49.894;10.886;2023-01-23T06:21:47;2.80;99.90
60701;DHT22;46541;49.894;10.886;2023-01-23T06:24:13;2.80;99.90
60701;DHT22;46541;49.894;10.886;2023-01-23T06:26:40;2.80;99.90
60701;DHT22;46541;49.894;10.886;2023-01-23T06:29:07;2.80;99.90
60701;DHT22;46541;49.894;10.886;2023-01-23T06:31:34;2.80;99.90
60701;DHT22;46541;49.894;10.886;2023-01-23T06:34:01;2.80;99.90
60701;DHT22;46541;49.894;10.886;2023-01-23T06:36:28;2.80;99.90
60701;DHT22;46541;49.894;10.886;2023-01-23T06:38:55;2.80;99.90
60701;DHT22;46541;49.894;10.886;2023-01-23T06:41:21;2.80;99.90
60701;DHT22;46541;49.894;10.886;2023-01-23T06:43:49;2.80;99.90
60701;DHT22;46541;49.894;10.886;2023-01-23T06:46:16;2.90;99.90
60701;DHT22;46541;49.894;10.886;2023-01-23T06:48:43;2.90;99.90
60701;DHT22;46541;49.894;10.886;2023-01-23T06:51:10;2.90;99.90
60701;DHT22;46541;49.894;10.886;2023-01-23T06:53:37;2.80;99.90
60701;DHT22;46541;49.894;10.886;2023-01-23T06:56:06;2.80;99.90
60701;DHT22;46541;49.894;10.886;2023-01-23T06:58:33;2.80;99.90
60701;DHT22;46541;49.894;10.886;2023-01-23T07:01:08;2.90;99.90
60701;DHT22;46541;49.894;10.886;2023-01-23T07:03:35;2.90;99.90
60701;DHT22;46541;49.894;10.886;2023-01-23T07:06:03;2.90;99.90
60701;DHT22;46541;49.894;10.886;2023-01-23T07:08:33;3.00;99.90
60701;DHT22;46541;49.894;10.886;2023-01-23T07:11:01;2.90;99.90
60701;DHT22;46541;49.894;10.886;2023-01-23T07:13:28;3.00;99.90
60701;DHT22;46541;49.894;10.886;2023-01-23T07:15:55;2.90;99.90
60701;DHT22;46541;49.894;10.886;2023-01-23T07:18:22;2.90;99.90
60701;DHT22;46541;49.894;10.886;2023-01-23T07:20:50;2.90;99.90
60701;DHT22;46541;49.894;10.886;2023-01-23T07:23:17;2.90;99.90
60701;DHT22;46541;49.894;10.886;2023-01-23T07:25:44;3.00;99.90
60701;DHT22;46541;49.894;10.886;2023-01-23T07:28:10;2.90;99.90
60701;DHT22;46541;49.894;10.886;2023-01-23T07:30:37;2.90;99.90
60701;DHT22;46541;49.894;10.886;2023-01-23T07:33:04;2.90;99.90
60701;DHT22;46541;49.894;10.886;2023-01-23T07:35:31;3.00;99.90
60701;DHT22;46541;49.894;10.886;2023-01-23T07:37:58;3.00;99.90
60701;DHT22;46541;49.894;10.886;2023-01-23T07:40:25;3.00;99.90
60701;DHT22;46541;49.894;10.886;2023-01-23T07:42:52;3.10;99.90
60701;DHT22;46541;49.894;10.886;2023-01-23T07:45:18;3.10;99.90
60701;DHT22;46541;49.894;10.886;2023-01-23T07:47:45;3.10;99.90
60701;DHT22;46541;49.894;10.886;2023-01-23T07:50:12;3.10;99.90
60701;DHT22;46541;49.894;10.886;2023-01-23T07:52:39;3.10;99.90
60701;DHT22;46541;49.894;10.886;2023-01-23T07:55:06;3.20;99.90
60701;DHT22;46541;49.894;10.886;2023-01-23T07:57:33;3.20;99.90
60701;DHT22;46541;49.894;10.886;2023-01-23T07:59:59;3.30;99.90
60701;DHT22;46541;49.894;10.886;2023-01-23T08:02:26;3.30;99.90
60701;DHT22;46541;49.894;10.886;2023-01-23T08:04:53;3.30;99.90
60701;DHT22;46541;49.894;10.886;2023-01-23T08:07:19;3.40;99.90
60701;DHT22;46541;49.894;10.886;2023-01-23T08:09:46;3.40;99.90
60701;DHT22;46541;49.894;10.886;2023-01-23T08:12:13;3.50;99.90
60701;DHT22;46541;49.894;10.886;2023-01-23T08:14:40;3.50;99.90
60701;DHT22;46541;49.894;10.886;2023-01-23T08:17:06;3.50;99.90
60701;DHT22;46541;49.894;10.886;2023-01-23T08:19:33;3.50;99.90
60701;DHT22;46541;49.894;10.886;2023-01-23T08:22:00;3.60;99.90
60701;DHT22;46541;49.894;10.886;2023-01-23T08:24:26;3.60;99.90
60701;DHT22;46541;49.894;10.886;2023-01-23T08:26:53;3.60;99.90
60701;DHT22;46541;49.894;10.886;2023-01-23T08:29:20;3.60;99.90
60701;DHT22;46541;49.894;10.886;2023-01-23T08:31:47;3.70;99.90
60701;DHT22;46541;49.894;10.886;2023-01-23T08:34:14;3.70;99.90
60701;DHT22;46541;49.894;10.886;2023-01-23T08:36:41;3.70;99.90
60701;DHT22;46541;49.894;10.886;2023-01-23T08:39:07;3.70;99.90
60701;DHT22;46541;49.894;10.886;2023-01-23T08:41:34;3.60;99.90
60701;DHT22;46541;49.894;10.886;2023-01-23T08:44:01;3.70;99.90
60701;DHT22;46541;49.894;10.886;2023-01-23T08:46:29;3.70;99.90
60701;DHT22;46541;49.894;10.886;2023-01-23T08:48:56;3.70;99.90
60701;DHT22;46541;49.894;10.886;2023-01-23T08:51:23;3.70;99.90
60701;DHT22;46541;49.894;10.886;2023-01-23T08:53:51;3.70;99.90
60701;DHT22;46541;49.894;10.886;2023-01-23T08:56:20;3.70;99.90
60701;DHT22;46541;49.894;10.886;2023-01-23T08:58:48;3.80;99.90
60701;DHT22;46541;49.894;10.886;2023-01-23T09:01:17;3.90;99.90
60701;DHT22;46541;49.894;10.886;2023-01-23T09:03:44;3.90;99.90
60701;DHT22;46541;49.894;10.886;2023-01-23T09:06:11;4.00;99.90
60701;DHT22;46541;49.894;10.886;2023-01-23T09:08:38;4.00;99.90
60701;DHT22;46541;49.894;10.886;2023-01-23T09:11:07;4.10;99.90
60701;DHT22;46541;49.894;10.886;2023-01-23T09:13:35;4.10;99.90
60701;DHT22;46541;49.894;10.886;2023-01-23T09:16:02;4.10;99.90
60701;DHT22;46541;49.894;10.886;2023-01-23T09:18:29;4.10;99.90
60701;DHT22;46541;49.894;10.886;2023-01-23T09:20:56;4.10;99.90
60701;DHT22;46541;49.894;10.886;2023-01-23T09:23:23;4.10;99.90
60701;DHT22;46541;49.894;10.886;2023-01-23T09:25:50;4.10;99.90
60701;DHT22;46541;49.894;10.886;2023-01-23T09:28:17;4.10;99.90
60701;DHT22;46541;49.894;10.886;2023-01-23T09:30:44;4.00;99.90
60701;DHT22;46541;49.894;10.886;2023-01-23T09:33:11;4.10;99.90
60701;DHT22;46541;49.894;10.886;2023-01-23T09:35:38;4.30;99.90
60701;DHT22;46541;49.894;10.886;2023-01-23T09:38:04;4.40;99.90
60701;DHT22;46541;49.894;10.886;2023-01-23T09:40:43;4.50;99.90
60701;DHT22;46541;49.894;10.886;2023-01-23T09:43:20;4.60;99.90
60701;DHT22;46541;49.894;10.886;2023-01-23T09:54:13;4.60;99.90
60701;DHT22;46541;49.894;10.886;2023-01-23T09:56:44;4.50;99.90
60701;DHT22;46541;49.894;10.886;2023-01-23T09:59:57;4.50;99.90
60701;DHT22;46541;49.894;10.886;2023-01-23T10:02:26;4.50;99.90
60701;DHT22;46541;49.894;10.886;2023-01-23T10:04:53;4.50;99.90
60701;DHT22;46541;49.894;10.886;2023-01-23T10:20:50;4.50;99.90
60701;DHT22;46541;49.894;10.886;2023-01-23T10:23:31;4.40;99.90
60701;DHT22;46541;49.894;10.886;2023-01-23T10:26:02;4.20;99.90
60701;DHT22;46541;49.894;10.886;2023-01-23T10:28:37;4.40;99.90
60701;DHT22;46541;49.894;10.886;2023-01-23T10:31:18;4.40;99.90
60701;DHT22;46541;49.894;10.886;2023-01-23T10:33:54;4.50;99.90
60701;DHT22;46541;49.894;10.886;2023-01-23T10:36:35;4.50;99.90
60701;DHT22;46541;49.894;10.886;2023-01-23T10:39:25;4.60;99.90
60701;DHT22;46541;49.894;10.886;2023-01-23T10:41:52;4.70;99.90
60701;DHT22;46541;49.894;10.886;2023-01-23T10:44:27;4.80;99.90
60701;DHT22;46541;49.894;10.886;2023-01-23T10:46:59;4.70;99.90
60701;DHT22;46541;49.894;10.886;2023-01-23T10:49:35;4.70;99.90
60701;DHT22;46541;49.894;10.886;2023-01-23T10:52:04;4.80;99.90
60701;DHT22;46541;49.894;10.886;2023-01-23T10:54:50;4.90;99.90
60701;DHT22;46541;49.894;10.886;2023-01-23T11:00:05;5.00;99.90
60701;DHT22;46541;49.894;10.886;2023-01-23T11:02:35;5.00;99.90
60701;DHT22;46541;49.894;10.886;2023-01-23T11:05:38;5.10;99.90
60701;DHT22;46541;49.894;10.886;2023-01-23T11:08:35;5.10;99.90
60701;DHT22;46541;49.894;10.886;2023-01-23T11:13:44;5.30;99.90
60701;DHT22;46541;49.894;10.886;2023-01-23T11:16:20;5.30;99.90
60701;DHT22;46541;49.894;10.886;2023-01-23T11:18:55;5.40;99.90
60701;DHT22;46541;49.894;10.886;2023-01-23T11:21:34;5.40;99.90
60701;DHT22;46541;49.894;10.886;2023-01-23T11:35:57;5.70;99.90
60701;DHT22;46541;49.894;10.886;2023-01-23T11:38:29;5.70;99.90
60701;DHT22;46541;49.894;10.886;2023-01-23T11:41:00;6.00;99.90
60701;DHT22;46541;49.894;10.886;2023-01-23T11:43:27;6.20;99.90
60701;DHT22;46541;49.894;10.886;2023-01-23T11:57:10;6.60;99.90
60701;DHT22;46541;49.894;10.886;2023-01-23T12:14:03;6.60;99.90
60701;DHT22;46541;49.894;10.886;2023-01-23T12:21:52;6.50;99.90
60701;DHT22;46541;49.894;10.886;2023-01-23T12:27:24;6.50;99.90
60701;DHT22;46541;49.894;10.886;2023-01-23T12:30:15;6.30;99.90
60701;DHT22;46541;49.894;10.886;2023-01-23T12:38:24;6.20;99.90
60701;DHT22;46541;49.894;10.886;2023-01-23T12:43:51;6.20;99.90
60701;DHT22;46541;49.894;10.886;2023-01-23T12:46:54;6.20;99.90
60701;DHT22;46541;49.894;10.886;2023-01-23T12:55:37;6.60;99.90
60701;DHT22;46541;49.894;10.886;2023-01-23T12:58:06;6.70;99.90
60701;DHT22;46541;49.894;10.886;2023-01-23T13:12:21;6.80;99.90
60701;DHT22;46541;49.894;10.886;2023-01-23T13:14:51;7.00;99.90
60701;DHT22;46541;49.894;10.886;2023-01-23T13:20:34;6.60;99.90
60701;DHT22;46541;49.894;10.886;2023-01-23T13:23:27;6.40;99.90
60701;DHT22;46541;49.894;10.886;2023-01-23T13:26:22;6.30;99.90
60701;DHT22;46541;49.894;10.886;2023-01-23T13:28:51;6.10;99.90
60701;DHT22;46541;49.894;10.886;2023-01-23T13:31:39;6.10;99.90
60701;DHT22;46541;49.894;10.886;2023-01-23T13:42:39;6.00;99.90
60701;DHT22;46541;49.894;10.886;2023-01-23T13:51:19;6.10;99.90
60701;DHT22;46541;49.894;10.886;2023-01-23T13:54:01;5.90;99.90
60701;DHT22;46541;49.894;10.886;2023-01-23T13:57:05;5.90;99.90
60701;DHT22;46541;49.894;10.886;2023-01-23T13:59:47;6.00;99.90
60701;DHT22;46541;49.894;10.886;2023-01-23T14:02:38;6.10;99.90
60701;DHT22;46541;49.894;10.886;2023-01-23T14:05:39;6.20;99.90
60701;DHT22;46541;49.894;10.886;2023-01-23T14:08:22;6.30;99.90
60701;DHT22;46541;49.894;10.886;2023-01-23T14:11:09;6.30;99.90
60701;DHT22;46541;49.894;10.886;2023-01-23T14:13:53;6.10;99.90
60701;DHT22;46541;49.894;10.886;2023-01-23T14:16:52;6.00;99.90
60701;DHT22;46541;49.894;10.886;2023-01-23T14:19:34;5.90;99.90
60701;DHT22;46541;49.894;10.886;2023-01-23T14:22:18;5.80;99.90
60701;DHT22;46541;49.894;10.886;2023-01-23T14:24:52;5.70;99.90
60701;DHT22;46541;49.894;10.886;2023-01-23T14:27:28;5.70;99.90
60701;DHT22;46541;49.894;10.886;2023-01-23T14:30:00;5.80;99.90
60701;DHT22;46541;49.894;10.886;2023-01-23T14:32:30;5.80;99.90
60701;DHT22;46541;49.894;10.886;2023-01-23T14:34:57;5.80;99.90
60701;DHT22;46541;49.894;10.886;2023-01-23T14:37:25;5.70;99.90
60701;DHT22;46541;49.894;10.886;2023-01-23T14:39:53;5.60;99.90
60701;DHT22;46541;49.894;10.886;2023-01-23T14:42:30;5.60;99.90
60701;DHT22;46541;49.894;10.886;2023-01-23T14:44:59;5.60;99.90
60701;DHT22;46541;49.894;10.886;2023-01-23T14:47:29;5.50;99.90
60701;DHT22;46541;49.894;10.886;2023-01-23T14:50:00;5.40;99.90
60701;DHT22;46541;49.894;10.886;2023-01-23T14:52:29;5.30;99.90
60701;DHT22;46541;49.894;10.886;2023-01-23T14:54:57;5.20;99.90
60701;DHT22;46541;49.894;10.886;2023-01-23T14:57:31;5.20;99.90
60701;DHT22;46541;49.894;10.886;2023-01-23T14:59:58;5.10;99.90
60701;DHT22;46541;49.894;10.886;2023-01-23T15:02:34;5.00;99.90
60701;DHT22;46541;49.894;10.886;2023-01-23T15:07:54;4.90;99.90
60701;DHT22;46541;49.894;10.886;2023-01-23T15:10:23;4.90;99.90
60701;DHT22;46541;49.894;10.886;2023-01-23T15:13:00;4.90;99.90
60701;DHT22;46541;49.894;10.886;2023-01-23T15:15:30;4.90;99.90
60701;DHT22;46541;49.894;10.886;2023-01-23T15:17:58;4.80;99.90
60701;DHT22;46541;49.894;10.886;2023-01-23T15:20:36;4.80;99.90
60701;DHT22;46541;49.894;10.886;2023-01-23T15:23:36;4.70;99.90
60701;DHT22;46541;49.894;10.886;2023-01-23T15:33:49;4.60;99.90
60701;DHT22;46541;49.894;10.886;2023-01-23T15:36:28;4.50;99.90
60701;DHT22;46541;49.894;10.886;2023-01-23T15:38:56;4.40;99.90
60701;DHT22;46541;49.894;10.886;2023-01-23T15:41:45;4.40;99.90
60701;DHT22;46541;49.894;10.886;2023-01-23T15:44:15;4.40;99.90
60701;DHT22;46541;49.894;10.886;2023-01-23T15:46:42;4.30;99.90
60701;DHT22;46541;49.894;10.886;2023-01-23T15:49:09;4.30;99.90
60701;DHT22;46541;49.894;10.886;2023-01-23T15:51:50;4.30;99.90
60701;DHT22;46541;49.894;10.886;2023-01-23T15:54:25;4.40;99.90
60701;DHT22;46541;49.894;10.886;2023-01-23T15:56:53;4.40;99.90
60701;DHT22;46541;49.894;10.886;2023-01-23T15:59:35;4.30;99.90
60701;DHT22;46541;49.894;10.886;2023-01-23T16:02:04;4.30;99.90
60701;DHT22;46541;49.894;10.886;2023-01-23T16:04:31;4.30;99.90
60701;DHT22;46541;49.894;10.886;2023-01-23T16:07:05;4.40;99.90
60701;DHT22;46541;49.894;10.886;2023-01-23T16:09:35;4.40;99.90
60701;DHT22;46541;49.894;10.886;2023-01-23T16:12:03;4.40;99.90
60701;DHT22;46541;49.894;10.886;2023-01-23T16:14:30;4.40;99.90
60701;DHT22;46541;49.894;10.886;2023-01-23T16:16:57;4.40;99.90
60701;DHT22;46541;49.894;10.886;2023-01-23T16:19:40;4.40;99.90
60701;DHT22;46541;49.894;10.886;2023-01-23T16:22:11;4.40;99.90
60701;DHT22;46541;49.894;10.886;2023-01-23T16:24:40;4.40;99.90
60701;DHT22;46541;49.894;10.886;2023-01-23T16:27:15;4.30;99.90
60701;DHT22;46541;49.894;10.886;2023-01-23T16:29:43;4.20;99.90
60701;DHT22;46541;49.894;10.886;2023-01-23T16:32:10;4.20;99.90
60701;DHT22;46541;49.894;10.886;2023-01-23T16:34:38;4.20;99.90
60701;DHT22;46541;49.894;10.886;2023-01-23T16:37:10;4.20;99.90
60701;DHT22;46541;49.894;10.886;2023-01-23T16:39:40;4.10;99.90
60701;DHT22;46541;49.894;10.886;2023-01-23T16:42:14;4.10;99.90
60701;DHT22;46541;49.894;10.886;2023-01-23T16:44:42;4.10;99.90
60701;DHT22;46541;49.894;10.886;2023-01-23T16:47:09;4.10;99.90
60701;DHT22;46541;49.894;10.886;2023-01-23T16:49:36;4.10;99.90
60701;DHT22;46541;49.894;10.886;2023-01-23T16:52:18;4.10;99.90
60701;DHT22;46541;49.894;10.886;2023-01-23T16:54:46;4.10;99.90
60701;DHT22;46541;49.894;10.886;2023-01-23T16:57:17;4.10;99.90
60701;DHT22;46541;49.894;10.886;2023-01-23T16:59:46;4.10;99.90
60701;DHT22;46541;49.894;10.886;2023-01-23T17:02:28;4.20;99.90
60701;DHT22;46541;49.894;10.886;2023-01-23T17:04:56;4.20;99.90
60701;DHT22;46541;49.894;10.886;2023-01-23T17:07:23;4.20;99.90
60701;DHT22;46541;49.894;10.886;2023-01-23T17:09:49;4.20;99.90
60701;DHT22;46541;49.894;10.886;2023-01-23T17:12:27;4.10;99.90
60701;DHT22;46541;49.894;10.886;2023-01-23T17:14:55;4.10;99.90
60701;DHT22;46541;49.894;10.886;2023-01-23T17:17:35;4.10;99.90
60701;DHT22;46541;49.894;10.886;2023-01-23T17:20:03;4.00;99.90
60701;DHT22;46541;49.894;10.886;2023-01-23T17:22:37;4.00;99.90
60701;DHT22;46541;49.894;10.886;2023-01-23T17:25:24;4.00;99.90
60701;DHT22;46541;49.894;10.886;2023-01-23T17:27:52;4.00;99.90
60701;DHT22;46541;49.894;10.886;2023-01-23T17:30:38;3.90;99.90
60701;DHT22;46541;49.894;10.886;2023-01-23T17:33:15;3.80;99.90
60701;DHT22;46541;49.894;10.886;2023-01-23T17:35:43;3.80;99.90
60701;DHT22;46541;49.894;10.886;2023-01-23T17:38:18;3.80;99.90
60701;DHT22;46541;49.894;10.886;2023-01-23T17:40:46;3.80;99.90
60701;DHT22;46541;49.894;10.886;2023-01-23T17:43:14;3.80;99.90
60701;DHT22;46541;49.894;10.886;2023-01-23T17:45:42;3.70;99.90
60701;DHT22;46541;49.894;10.886;2023-01-23T17:48:14;3.70;99.90
60701;DHT22;46541;49.894;10.886;2023-01-23T17:50:45;3.80;99.90
60701;DHT22;46541;49.894;10.886;2023-01-23T17:53:13;3.70;99.90
60701;DHT22;46541;49.894;10.886;2023-01-23T17:55:40;3.70;99.90
60701;DHT22;46541;49.894;10.886;2023-01-23T17:58:12;3.60;99.90
60701;DHT22;46541;49.894;10.886;2023-01-23T18:00:40;3.70;99.90
60701;DHT22;46541;49.894;10.886;2023-01-23T18:03:11;3.60;99.90
60701;DHT22;46541;49.894;10.886;2023-01-23T18:05:39;3.60;99.90
60701;DHT22;46541;49.894;10.886;2023-01-23T18:08:09;3.50;99.90